Time;durP1;ratioP1;P1;durP2;ratioP2;P2;SDS_P1;SDS_P2;PMS_P1;PMS_P2;Temp;Humidity;BMP_temperature;BMP_pressure;BME280_temperature;BME280_humidity;BME280_pressure;Samples;Min_cycle;Max_cycle;Signal;HPM_P1;HPM_P2
2022/02/06 00:00:31;;;;;;;43.15;20.88;;;;;;;4.61;100.00;99415.44;5127110;28;20043;-93
2022/02/06 00:02:57;;;;;;;44.53;22.63;;;;;;;4.59;100.00;99413.66;5124088;28;20047;-94
2022/02/06 00:05:23;;;;;;;42.13;20.38;;;;;;;4.56;100.00;99424.19;5133070;28;20035;-93
2022/02/06 00:07:49;;;;;;;38.75;19.52;;;;;;;4.42;100.00;99416.16;5128153;28;20039;-93
2022/02/06 00:10:16;;;;;;;38.70;19.33;;;;;;;4.35;100.00;99417.00;5120109;28;20040;-93
2022/02/06 00:12:43;;;;;;;41.38;20.80;;;;;;;4.30;100.00;99436.28;5133099;28;20044;-94
2022/02/06 00:15:10;;;;;;;39.45;18.95;;;;;;;4.35;100.00;99453.88;5122814;28;20040;-94
2022/02/06 00:17:36;;;;;;;41.92;19.58;;;;;;;4.14;100.00;99430.84;5112646;28;20040;-93
2022/02/06 00:20:03;;;;;;;44.22;21.70;;;;;;;4.07;100.00;99422.88;5112256;28;20393;-92
2022/02/06 00:25:23;;;;;;;39.40;19.95;;;;;;;4.14;100.00;99449.28;5105044;27;20379;-95
2022/02/06 00:30:40;;;;;;;37.72;18.92;;;;;;;3.98;100.00;99445.63;5092401;27;20393;-95
2022/02/06 00:36:05;;;;;;;47.72;22.65;;;;;;;4.29;100.00;99450.31;5155129;27;20412;-94
2022/02/06 00:39:03;;;;;;;48.17;22.38;;;;;;;4.26;100.00;99441.50;5154075;27;20054;-94
2022/02/06 00:41:22;;;;;;;45.13;22.27;;;;;;;4.28;100.00;99455.56;5121593;27;20053;-93
2022/02/06 00:43:49;;;;;;;53.00;23.30;;;;;;;4.28;100.00;99443.28;5154060;27;20091;-94
2022/02/06 00:46:16;;;;;;;44.38;21.92;;;;;;;4.10;100.00;99422.94;5154069;27;20115;-94
2022/02/06 00:48:48;;;;;;;48.22;22.27;;;;;;;3.91;100.00;99413.97;5154088;27;20046;-94
2022/02/06 00:51:25;;;;;;;50.13;22.67;;;;;;;3.98;100.00;99435.09;5154001;27;20129;-95
2022/02/06 00:53:51;;;;;;;48.50;21.73;;;;;;;4.03;100.00;99446.53;5153423;27;20035;-93
2022/02/06 00:56:17;;;;;;;47.60;23.88;;;;;;;4.02;100.00;99445.66;5149883;27;20038;-94
2022/02/06 00:58:43;;;;;;;54.55;25.13;;;;;;;3.99;100.00;99436.84;5154066;27;20614;-93
2022/02/06 01:01:09;;;;;;;60.30;26.30;;;;;;;3.97;100.00;99428.94;5153854;27;20039;-94
2022/02/06 01:03:35;;;;;;;49.00;23.92;;;;;;;4.13;100.00;99458.91;5153862;27;20039;-93
2022/02/06 01:06:02;;;;;;;50.97;23.02;;;;;;;4.24;100.00;99466.94;5153830;27;20049;-96
2022/02/06 01:08:29;;;;;;;50.63;22.38;;;;;;;4.16;100.00;99443.16;5153505;27;20066;-93
2022/02/06 01:10:55;;;;;;;53.63;23.80;;;;;;;4.22;100.00;99455.50;5153235;27;20062;-93
2022/02/06 01:16:16;;;;;;;42.22;20.95;;;;;;;4.16;100.00;99464.19;5092126;27;20374;-94
2022/02/06 01:18:50;;;;;;;48.78;21.70;;;;;;;4.10;100.00;99451.88;5091998;28;20052;-93
2022/02/06 01:21:27;;;;;;;49.67;22.33;;;;;;;4.16;100.00;99463.34;5092011;28;20040;-93
2022/02/06 01:24:02;;;;;;;46.40;21.50;;;;;;;3.89;100.00;99428.84;5092301;28;20064;-94
2022/02/06 01:29:34;;;;;;;45.85;22.02;;;;;;;4.14;100.00;99452.78;5109033;27;20374;-93
2022/02/06 01:32:05;;;;;;;46.38;23.15;;;;;;;3.93;100.00;99436.81;5093450;28;20048;-95
2022/02/06 01:34:43;;;;;;;49.03;22.52;;;;;;;3.88;100.00;99444.63;5092702;28;20048;-93
2022/02/06 01:43:03;;;;;;;51.42;24.63;;;;;;;3.72;100.00;99438.31;5145720;27;20415;-95
2022/02/06 01:45:40;;;;;;;55.15;22.95;;;;;;;3.67;100.00;99432.13;5105795;28;20046;-96
2022/02/06 01:57:27;;;;;;;56.47;24.77;;;;;;;3.68;100.00;99428.63;5112850;27;20381;-94
2022/02/06 02:03:04;;;;;;;45.00;22.13;;;;;;;3.80;100.00;99447.19;5154215;27;20381;-94
2022/02/06 02:09:07;;;;;;;47.90;21.20;;;;;;;3.48;100.00;99429.28;5113384;27;20376;-95
2022/02/06 02:14:40;;;;;;;41.60;19.30;;;;;;;3.35;100.00;99445.78;5092812;27;20378;-94
2022/02/06 02:22:56;;;;;;;43.08;20.45;;;;;;;3.14;100.00;99448.09;5133149;27;20376;-94
2022/02/06 02:42:57;;;;;;;32.63;17.98;;;;;;;2.82;100.00;99446.81;5092620;27;20859;-94
2022/02/06 02:48:23;;;;;;;38.40;19.27;;;;;;;2.85;100.00;99427.56;5133482;27;20383;-94
2022/02/06 02:50:56;;;;;;;44.70;18.98;;;;;;;2.82;100.00;99419.63;5133787;28;20088;-94
2022/02/06 03:01:58;;;;;;;38.15;18.45;;;;;;;2.90;100.00;99435.50;5133338;27;20384;-93
2022/02/06 03:04:25;;;;;;;43.22;19.27;;;;;;;2.90;100.00;99449.53;5133612;28;20043;-95
2022/02/06 03:06:51;;;;;;;37.50;18.05;;;;;;;2.66;100.00;99423.78;5133480;28;20427;-95
2022/02/06 03:09:19;;;;;;;40.25;17.67;;;;;;;2.68;100.00;99449.19;5122061;27;20583;-94
2022/02/06 03:11:44;;;;;;;38.28;18.77;;;;;;;2.60;100.00;99453.47;5112848;28;20044;-94
2022/02/06 03:14:16;;;;;;;40.22;19.60;;;;;;;2.49;100.00;99436.66;5126013;28;20592;-94
2022/02/06 03:16:49;;;;;;;34.50;18.27;;;;;;;2.51;100.00;99458.56;5132855;27;20050;-93
2022/02/06 03:19:18;;;;;;;38.83;17.08;;;;;;;2.41;100.00;99433.91;5133082;27;20043;-94
2022/02/06 03:21:45;;;;;;;44.60;20.38;;;;;;;2.58;100.00;99442.06;5133152;28;20074;-94
2022/02/06 03:24:22;;;;;;;44.58;20.42;;;;;;;2.66;100.00;99434.28;5133358;28;20043;-94
2022/02/06 03:26:49;;;;;;;41.90;19.60;;;;;;;2.72;100.00;99444.91;5133443;27;20035;-96
2022/02/06 03:29:16;;;;;;;41.78;20.38;;;;;;;2.56;100.00;99427.13;5133130;28;20048;-93
2022/02/06 03:31:42;;;;;;;38.45;18.77;;;;;;;2.53;100.00;99442.84;5132851;28;20093;-94
2022/02/06 03:34:09;;;;;;;37.70;18.27;;;;;;;2.30;100.00;99418.81;5132866;27;20492;-95
2022/02/06 03:36:36;;;;;;;34.17;17.45;;;;;;;2.40;100.00;99431.25;5132965;28;20078;-95
2022/02/06 03:39:03;;;;;;;35.25;18.50;;;;;;;2.28;100.00;99426.69;5132895;28;20423;-94
2022/02/06 03:41:30;;;;;;;37.17;17.05;;;;;;;2.28;100.00;99436.28;5132524;28;20075;-94
2022/02/06 03:44:04;;;;;;;36.10;17.42;;;;;;;2.10;100.00;99416.75;5132086;28;20048;-95
2022/02/06 03:46:36;;;;;;;37.45;17.70;;;;;;;2.30;100.00;99461.72;5131657;28;20078;-95
2022/02/06 03:49:08;;;;;;;40.35;17.58;;;;;;;2.25;100.00;99448.50;5132157;27;20512;-93
2022/02/06 03:51:36;;;;;;;38.78;18.63;;;;;;;2.16;100.00;99429.09;5131988;27;20040;-95
2022/02/06 03:54:05;;;;;;;37.58;16.02;;;;;;;2.18;100.00;99430.88;5132324;28;20039;-95
2022/02/06 03:56:32;;;;;;;31.90;16.00;;;;;;;2.19;100.00;99448.41;5132318;27;20105;-94
2022/02/06 03:58:59;;;;;;;35.30;16.75;;;;;;;2.17;100.00;99443.97;5132683;27;20127;-94
2022/02/06 04:01:26;;;;;;;32.95;15.50;;;;;;;1.98;100.00;99429.69;5132060;27;20138;-96
2022/02/06 04:03:52;;;;;;;34.65;17.48;;;;;;;1.88;100.00;99418.13;5132851;28;20040;-93
2022/02/06 04:06:18;;;;;;;34.10;16.10;;;;;;;1.90;100.00;99428.66;5132369;28;20569;-94
2022/02/06 04:08:45;;;;;;;37.70;15.93;;;;;;;1.99;100.00;99449.78;5132517;28;20134;-95
2022/02/06 04:11:18;;;;;;;32.33;15.70;;;;;;;1.76;100.00;99420.53;5129989;28;20062;-94
2022/02/06 04:16:51;;;;;;;27.30;15.43;;;;;;;1.56;100.00;99433.25;5066377;27;20395;-95
2022/02/06 04:22:02;;;;;;;28.77;14.60;;;;;;;1.57;100.00;99456.00;5154553;27;20371;-94
2022/02/06 04:24:28;;;;;;;27.02;14.02;;;;;;;1.46;100.00;99453.16;5154521;27;20047;-95
2022/02/06 04:26:54;;;;;;;29.20;14.18;;;;;;;1.39;100.00;99443.41;5154506;27;20103;-95
2022/02/06 04:29:20;;;;;;;28.52;15.15;;;;;;;1.37;100.00;99438.13;5154165;27;20134;-94
2022/02/06 04:31:49;;;;;;;29.00;14.05;;;;;;;1.48;100.00;99464.56;5154093;27;20039;-94
2022/02/06 04:34:21;;;;;;;27.92;14.77;;;;;;;1.41;100.00;99439.97;5154344;27;20067;-96
2022/02/06 05:15:28;;;;;;;33.33;15.05;;;;;;;1.16;100.00;99433.31;5112939;27;20381;-94
2022/02/06 05:18:23;;;;;;;31.35;14.30;;;;;;;1.39;100.00;99465.25;5113493;28;20044;-94
2022/02/06 05:34:58;;;;;;;44.83;14.98;;;;;;;1.22;100.00;99451.78;5133703;27;20379;-94
2022/02/06 05:37:26;;;;;;;42.42;13.13;;;;;;;1.30;100.00;99443.19;5133906;28;20050;-95
2022/02/06 05:39:52;;;;;;;43.30;14.25;;;;;;;1.30;100.00;99441.50;5133573;28;20043;-95
2022/02/06 05:42:20;;;;;;;25.70;12.90;;;;;;;1.35;100.00;99442.44;5133746;28;20377;-95
2022/02/06 05:44:52;;;;;;;39.35;13.20;;;;;;;1.57;100.00;99456.88;5133503;28;20039;-94
2022/02/06 05:47:17;;;;;;;37.50;14.60;;;;;;;1.72;100.00;99468.53;5133030;28;20035;-95
2022/02/06 05:49:43;;;;;;;94.80;15.35;;;;;;;1.74;100.00;99485.16;5133852;28;20092;-95
2022/02/06 05:52:11;;;;;;;83.93;16.08;;;;;;;1.62;100.00;99467.44;5133817;28;20437;-95
2022/02/06 05:54:36;;;;;;;79.03;14.93;;;;;;;1.56;100.00;99455.13;5133283;28;20047;-94
2022/02/06 05:57:04;;;;;;;65.18;14.30;;;;;;;1.72;100.00;99464.16;5133387;28;20492;-95
2022/02/06 05:59:30;;;;;;;56.75;13.73;;;;;;;1.82;100.00;99473.06;5133365;28;20044;-95
2022/02/06 06:01:56;;;;;;;52.00;13.05;;;;;;;1.77;100.00;99464.25;5133206;28;20039;-94
2022/02/06 06:04:22;;;;;;;48.78;14.23;;;;;;;1.83;100.00;99487.97;5133620;28;20051;-93
2022/02/06 06:06:47;;;;;;;112.40;14.93;;;;;;;1.94;100.00;99502.16;5133145;28;20044;-95
2022/02/06 06:09:15;;;;;;;146.60;16.27;;;;;;;1.53;100.00;99472.50;5133576;28;20070;-93
2022/02/06 06:11:41;;;;;;;107.13;15.18;;;;;;;1.64;100.00;99499.81;5133139;28;20172;-94
2022/02/06 06:14:07;;;;;;;77.97;13.77;;;;;;;1.54;100.00;99504.00;5137146;27;20460;-95
2022/02/06 06:16:34;;;;;;;31.27;10.57;;;;;;;1.49;100.00;99479.41;5141519;27;20141;-93
2022/02/06 06:19:01;;;;;;;80.57;13.52;;;;;;;1.52;100.00;99510.03;5133080;28;20098;-95
2022/02/06 06:21:29;;;;;;;37.47;13.77;;;;;;;1.43;100.00;99505.50;5132670;28;20480;-93
2022/02/06 06:23:56;;;;;;;78.50;15.30;;;;;;;1.33;100.00;99488.69;5133230;28;20044;-95
2022/02/06 06:26:25;;;;;;;39.42;13.60;;;;;;;1.33;100.00;99485.22;5133037;28;20050;-94
2022/02/06 06:28:51;;;;;;;49.50;14.57;;;;;;;1.41;100.00;99494.09;5132967;28;20130;-94
2022/02/06 06:31:17;;;;;;;89.97;15.70;;;;;;;1.54;100.00;99516.19;5132521;28;20126;-95
2022/02/06 06:33:42;;;;;;;63.55;13.55;;;;;;;1.54;100.00;99514.50;5132149;28;20051;-94
2022/02/06 06:36:09;;;;;;;68.03;14.75;;;;;;;1.48;100.00;99503.88;5132405;28;20036;-93
2022/02/06 06:38:36;;;;;;;128.38;17.85;;;;;;;1.58;100.00;99518.94;5134030;28;20091;-94
2022/02/06 06:41:02;;;;;;;135.10;18.67;;;;;;;1.55;100.00;99517.97;5133420;28;20044;-94
2022/02/06 06:43:30;;;;;;;95.50;17.00;;;;;;;1.58;100.00;99526.81;5133995;28;20543;-94
2022/02/06 06:45:57;;;;;;;76.78;17.27;;;;;;;1.57;100.00;99511.91;5121004;28;20040;-94
2022/02/06 06:48:23;;;;;;;57.85;17.00;;;;;;;1.72;100.00;99527.09;5119910;28;20066;-93
2022/02/06 06:50:49;;;;;;;75.47;16.67;;;;;;;1.57;100.00;99518.91;5119295;28;20032;-93
2022/02/06 06:53:15;;;;;;;106.57;17.20;;;;;;;1.69;100.00;99528.75;5118837;28;20059;-94
2022/02/06 06:55:45;;;;;;;93.03;17.23;;;;;;;1.64;100.00;99529.53;5118514;28;20585;-93
2022/02/06 06:58:19;;;;;;;;;;;;;;;1.75;100.00;99553.34;5120342;28;20082;-94
2022/02/06 07:03:39;;;;;;;39.30;16.15;;;;;;;1.66;100.00;99542.69;5177315;27;20380;-91
2022/02/06 07:06:05;;;;;;;51.63;15.68;;;;;;;1.62;100.00;99556.56;5177337;27;20055;-95
2022/02/06 07:08:30;;;;;;;41.38;14.85;;;;;;;1.67;100.00;99549.72;5177564;27;20050;-93
2022/02/06 07:10:56;;;;;;;25.90;13.95;;;;;;;1.69;100.00;99540.13;5176521;27;20535;-92
2022/02/06 07:13:22;;;;;;;33.55;14.15;;;;;;;1.86;100.00;99556.19;5176479;27;20412;-92
2022/02/06 07:15:48;;;;;;;34.17;14.55;;;;;;;1.88;100.00;99541.38;5176207;27;20038;-93
2022/02/06 07:18:14;;;;;;;27.33;12.80;;;;;;;2.00;100.00;99546.00;5176545;27;20045;-92
2022/02/06 07:20:42;;;;;;;32.92;12.13;;;;;;;2.25;100.00;99548.22;5176088;27;20091;-92
2022/02/06 07:23:09;;;;;;;31.65;10.88;;;;;;;2.24;100.00;99537.72;5176356;27;20077;-92
2022/02/06 07:25:37;;;;;;;22.15;10.18;;;;;;;2.32;100.00;99533.50;5175835;27;20130;-94
2022/02/06 07:28:04;;;;;;;24.55;11.25;;;;;;;2.40;100.00;99547.63;5176305;27;20047;-93
2022/02/06 07:30:29;;;;;;;26.20;11.73;;;;;;;2.38;100.00;99530.97;5175686;27;20046;-93
2022/02/06 07:32:55;;;;;;;22.10;10.25;;;;;;;2.50;100.00;99526.81;5176826;27;20046;-92
2022/02/06 07:35:21;;;;;;;20.88;9.95;;;;;;;2.59;100.00;99533.09;5176371;27;20487;-92
2022/02/06 07:37:58;;;;;;;23.55;10.13;;;;;;;2.60;100.00;99532.25;5176214;27;20038;-93
2022/02/06 07:40:25;;;;;;;34.63;14.95;;;;;;;2.71;100.00;99529.81;5176220;27;20047;-94
2022/02/06 07:42:51;;;;;;;41.33;17.23;;;;;;;2.72;100.00;99549.94;5176094;27;20038;-94
2022/02/06 07:45:17;;;;;;;32.40;16.35;;;;;;;2.55;100.00;99530.38;5175560;27;20131;-93
2022/02/06 07:47:45;;;;;;;36.70;15.73;;;;;;;2.71;100.00;99547.28;5175810;27;20042;-94
2022/02/06 07:50:13;;;;;;;33.70;15.93;;;;;;;2.68;100.00;99521.84;5174358;27;20042;-94
2022/02/06 07:52:38;;;;;;;34.40;17.13;;;;;;;2.81;100.00;99536.06;5174386;27;20428;-92
2022/02/06 07:55:07;;;;;;;34.88;14.98;;;;;;;2.94;100.00;99547.66;5174283;27;20098;-93
2022/02/06 07:57:33;;;;;;;40.50;15.70;;;;;;;2.78;100.00;99522.91;5174632;27;20491;-92
2022/02/06 08:00:00;;;;;;;29.98;14.95;;;;;;;2.98;100.00;99547.75;5174285;27;20046;-93
2022/02/06 08:02:26;;;;;;;29.52;13.50;;;;;;;3.09;100.00;99546.16;5174098;27;20047;-94
2022/02/06 08:04:52;;;;;;;29.30;14.45;;;;;;;3.25;100.00;99551.63;5174307;27;20098;-94
2022/02/06 08:07:18;;;;;;;28.50;13.38;;;;;;;3.14;100.00;99524.31;5174141;27;20046;-93
2022/02/06 08:12:56;;;;;;;25.25;14.50;;;;;;;3.69;100.00;99546.13;5092832;27;20370;-94
2022/02/06 08:15:23;;;;;;;32.35;15.57;;;;;;;3.71;100.00;99539.16;5092828;28;20070;-94
2022/02/06 08:17:49;;;;;;;29.48;14.05;;;;;;;3.77;100.00;99544.47;5092831;28;20040;-95
2022/02/06 08:20:16;;;;;;;29.90;14.65;;;;;;;3.76;100.00;99541.84;5093033;28;20485;-94
2022/02/06 08:22:43;;;;;;;29.15;14.80;;;;;;;3.79;100.00;99540.09;5092986;28;20036;-96
2022/02/06 08:25:11;;;;;;;39.28;15.23;;;;;;;3.88;100.00;99557.75;5093452;28;20525;-95
2022/02/06 08:27:37;;;;;;;25.88;14.05;;;;;;;3.80;100.00;99526.09;5093139;28;20052;-94
2022/02/06 08:30:07;;;;;;;27.38;13.30;;;;;;;3.98;100.00;99540.34;5093300;28;20052;-94
2022/02/06 08:32:33;;;;;;;29.85;13.38;;;;;;;4.10;100.00;99551.03;5093016;28;20104;-94
2022/02/06 08:34:59;;;;;;;54.53;14.32;;;;;;;4.03;99.00;99552.69;5093503;28;20056;-95
2022/02/06 08:37:25;;;;;;;33.30;14.07;;;;;;;4.03;100.00;99544.78;5092934;28;20076;-95
2022/02/06 08:39:52;;;;;;;44.05;16.55;;;;;;;4.04;100.00;99533.41;5093620;28;20048;-95
2022/02/06 08:42:18;;;;;;;31.38;16.02;;;;;;;4.20;100.00;99544.09;5092625;28;20051;-94
2022/02/06 08:44:46;;;;;;;30.52;15.30;;;;;;;4.32;100.00;99536.34;5092071;28;20048;-94
2022/02/06 08:47:16;;;;;;;30.30;15.15;;;;;;;4.63;99.53;99555.09;5092418;28;20044;-95
2022/02/06 08:49:41;;;;;;;;;;;;;;;4.83;98.28;99547.34;5093444;28;20044;-95
2022/02/06 08:52:09;;;;;;;33.17;14.68;;;;;;;4.77;97.60;99515.66;5093045;28;20010;-94
2022/02/06 08:54:37;;;;;;;37.53;15.07;;;;;;;5.00;96.41;99545.72;5093577;28;20036;-95
2022/02/06 08:57:12;;;;;;;33.85;15.50;;;;;;;4.77;95.70;99521.84;5092538;28;20044;-95
2022/02/06 08:59:39;;;;;;;34.90;16.80;;;;;;;4.73;97.16;99542.00;5092876;28;20049;-95
2022/02/06 09:02:04;;;;;;;34.95;16.58;;;;;;;4.94;96.26;99519.31;5072835;28;20486;-93
2022/02/06 09:04:32;;;;;;;36.30;17.20;;;;;;;5.17;94.00;99535.31;5074389;28;20091;-94
2022/02/06 09:07:01;;;;;;;35.10;16.98;;;;;;;5.25;93.67;99538.91;5075499;28;20049;-93
2022/02/06 09:09:28;;;;;;;35.85;17.10;;;;;;;5.35;93.20;99538.06;5075862;28;20381;-95
2022/02/06 09:11:55;;;;;;;35.20;19.05;;;;;;;5.32;92.35;99529.25;5082286;28;20075;-96
2022/02/06 09:14:23;;;;;;;38.10;19.10;;;;;;;5.20;92.39;99518.63;5095019;28;20051;-94
2022/02/06 09:16:50;;;;;;;35.60;18.40;;;;;;;5.21;92.55;99526.56;5094850;28;20037;-95
2022/02/06 09:19:17;;;;;;;33.75;16.85;;;;;;;5.43;93.57;99546.03;5095304;28;20080;-95
2022/02/06 09:21:45;;;;;;;39.35;17.45;;;;;;;5.23;92.92;99527.44;5094839;28;20044;-96
2022/02/06 09:24:11;;;;;;;38.85;17.08;;;;;;;5.22;92.22;99523.03;5076826;28;20068;-93
2022/02/06 09:26:39;;;;;;;34.78;19.13;;;;;;;5.44;93.34;99539.88;5081963;28;20052;-93
2022/02/06 09:29:05;;;;;;;45.55;20.45;;;;;;;5.59;91.50;99533.81;5062537;28;20045;-94
2022/02/06 09:31:32;;;;;;;35.80;18.80;;;;;;;5.60;91.02;99529.44;5060523;28;20045;-93
2022/02/06 09:36:43;;;;;;;36.30;19.38;;;;;;;5.70;90.98;99533.84;5135910;27;20382;-94
2022/02/06 09:39:11;;;;;;;38.20;18.98;;;;;;;5.95;90.14;99546.31;5137088;27;20131;-95
2022/02/06 09:41:38;;;;;;;39.03;20.23;;;;;;;6.03;90.11;99529.63;5136451;28;20044;-95
2022/02/06 09:44:06;;;;;;;38.45;19.77;;;;;;;6.06;88.45;99534.94;5133671;27;20049;-95
2022/02/06 09:46:32;;;;;;;39.35;20.55;;;;;;;6.28;87.86;99552.59;5133525;28;20433;-95
2022/02/06 09:48:58;;;;;;;42.30;21.15;;;;;;;6.10;89.18;99548.16;5133422;28;20053;-96
2022/02/06 09:51:25;;;;;;;40.70;20.15;;;;;;;5.95;90.62;99527.84;5134432;28;20051;-95
2022/02/06 09:53:53;;;;;;;43.85;22.13;;;;;;;6.13;88.94;99523.50;5135455;28;20108;-95
2022/02/06 09:56:22;;;;;;;39.35;21.38;;;;;;;6.21;90.57;99529.69;5136298;28;20039;-95
2022/02/06 10:01:37;;;;;;;44.45;21.50;;;;;;;6.21;88.89;99537.63;5094126;27;20898;-96
2022/02/06 10:04:06;;;;;;;46.95;24.38;;;;;;;6.21;89.27;99524.41;5094226;28;20448;-93
2022/02/06 10:06:42;;;;;;;42.88;22.15;;;;;;;6.25;89.68;99515.63;5094230;28;20044;-94
2022/02/06 10:09:09;;;;;;;41.88;21.15;;;;;;;6.50;88.75;99534.16;5093170;28;20037;-94
2022/02/06 10:11:44;;;;;;;43.83;24.05;;;;;;;6.60;87.92;99533.28;5093807;28;20076;-94
2022/02/06 10:14:11;;;;;;;44.35;23.65;;;;;;;6.70;88.20;99527.16;5093226;28;20707;-94
2022/02/06 10:16:39;;;;;;;43.55;21.88;;;;;;;6.75;86.70;99517.44;5093566;28;20397;-94
2022/02/06 10:25:19;;;;;;;48.10;25.17;;;;;;;6.99;86.33;99531.53;5089203;28;20066;-95
2022/02/06 10:27:52;;;;;;;45.50;23.05;;;;;;;7.02;85.58;99513.03;5092706;28;20489;-94
2022/02/06 10:30:20;;;;;;;52.58;22.23;;;;;;;7.18;85.03;99513.91;5093274;28;20044;-95
2022/02/06 10:32:48;;;;;;;41.65;21.13;;;;;;;7.22;85.40;99507.69;5093408;28;20044;-94
2022/02/06 10:35:14;;;;;;;44.47;23.50;;;;;;;7.37;84.22;99513.00;5093986;28;20044;-94
2022/02/06 10:37:40;;;;;;;46.75;23.73;;;;;;;7.46;84.71;99512.09;5093435;28;20037;-94
2022/02/06 10:40:07;;;;;;;42.00;23.15;;;;;;;7.45;83.66;99490.91;5092671;28;20119;-94
2022/02/06 10:42:36;;;;;;;45.28;23.55;;;;;;;7.39;83.38;99489.16;5094652;28;20048;-93
2022/02/06 10:45:17;;;;;;;44.07;22.60;;;;;;;7.54;83.85;99504.09;5094412;28;20040;-94
2022/02/06 10:47:44;;;;;;;39.83;20.95;;;;;;;7.45;83.34;99478.56;5095503;28;20048;-95
2022/02/06 10:50:14;;;;;;;39.90;20.70;;;;;;;7.55;83.59;99484.72;5094711;28;20032;-94
2022/02/06 10:52:40;;;;;;;39.70;21.58;;;;;;;7.59;82.79;99497.06;5094035;28;20497;-95
2022/02/06 10:55:07;;;;;;;40.72;21.70;;;;;;;7.41;84.48;99471.50;5094470;28;20052;-94
2022/02/06 10:57:34;;;;;;;38.00;21.48;;;;;;;7.45;83.83;99469.75;5093424;28;20064;-95
2022/02/06 11:00:00;;;;;;;36.55;21.65;;;;;;;7.52;84.48;99475.00;5092703;28;20056;-95
2022/02/06 11:02:28;;;;;;;41.22;24.02;;;;;;;7.44;83.83;99455.63;5093434;28;20086;-93
2022/02/06 11:04:56;;;;;;;41.13;22.13;;;;;;;7.48;84.60;99449.44;5092450;28;20509;-94
2022/02/06 11:07:23;;;;;;;41.58;21.27;;;;;;;7.53;84.51;99438.84;5094538;28;20135;-94
2022/02/06 11:09:49;;;;;;;41.40;22.40;;;;;;;7.50;83.94;99441.50;5093900;28;20046;-96
2022/02/06 11:12:17;;;;;;;42.67;23.67;;;;;;;7.51;84.01;99445.91;5084777;28;20047;-94
2022/02/06 11:14:49;;;;;;;41.42;21.83;;;;;;;7.44;84.74;99429.19;5081397;28;20071;-95
2022/02/06 11:17:20;;;;;;;46.65;22.80;;;;;;;7.40;84.00;99432.72;5079224;28;20045;-95
2022/02/06 11:20:01;;;;;;;41.45;23.40;;;;;;;7.34;85.95;99445.97;5079268;28;20119;-94
2022/02/06 11:22:29;;;;;;;43.95;23.92;;;;;;;7.47;86.81;99447.69;5078940;28;20045;-95
2022/02/06 11:24:55;;;;;;;41.72;23.35;;;;;;;7.43;86.13;99423.88;5078744;28;20040;-95
2022/02/06 11:27:22;;;;;;;47.30;22.63;;;;;;;7.48;86.46;99411.50;5078213;28;20050;-94
2022/02/06 11:29:48;;;;;;;48.03;25.50;;;;;;;7.68;86.55;99422.03;5079071;28;20448;-96
2022/02/06 11:32:14;;;;;;;41.97;24.25;;;;;;;7.74;85.41;99412.28;5077634;28;20044;-95
2022/02/06 11:34:43;;;;;;;41.00;23.33;;;;;;;7.67;84.59;99396.41;5078232;28;20045;-95
2022/02/06 11:43:58;;;;;;;45.47;25.05;;;;;;;7.72;85.23;99390.22;5113725;27;20372;-94
2022/02/06 11:46:28;;;;;;;45.15;23.65;;;;;;;7.74;86.20;99374.31;5093130;28;20044;-95
2022/02/06 11:49:08;;;;;;;41.05;22.17;;;;;;;7.96;85.59;99375.94;5109745;28;20056;-94
2022/02/06 11:51:34;;;;;;;41.03;21.88;;;;;;;7.99;84.35;99381.22;5112702;28;20508;-94
2022/02/06 11:54:25;;;;;;;41.63;22.42;;;;;;;8.13;84.58;99381.13;5114336;28;20039;-94
2022/02/06 11:57:10;;;;;;;42.25;21.25;;;;;;;8.21;84.90;99379.28;5113144;28;20078;-94
2022/02/06 11:59:38;;;;;;;40.25;22.38;;;;;;;8.33;85.03;99372.16;5113870;28;20396;-96
2022/02/06 12:02:25;;;;;;;42.95;22.38;;;;;;;8.24;84.23;99343.97;5123414;27;20040;-94
2022/02/06 12:05:12;;;;;;;40.83;22.88;;;;;;;8.45;83.21;99368.53;5133526;28;20048;-94
2022/02/06 12:07:53;;;;;;;45.78;24.10;;;;;;;8.34;83.47;99342.09;5127886;28;20074;-94
2022/02/06 12:10:20;;;;;;;45.50;24.65;;;;;;;8.48;83.42;99342.00;5111977;27;20036;-96
2022/02/06 12:12:47;;;;;;;44.53;24.67;;;;;;;8.60;82.08;99331.28;5114992;28;20040;-95
2022/02/06 12:15:19;;;;;;;44.83;24.77;;;;;;;8.65;83.31;99342.72;5117826;27;20046;-94
2022/02/06 12:18:05;;;;;;;42.05;23.60;;;;;;;8.72;83.40;99330.25;5112749;28;20079;-94
2022/02/06 12:20:47;;;;;;;43.03;24.70;;;;;;;8.81;82.52;99335.50;5113510;28;20039;-94
2022/02/06 12:23:36;;;;;;;42.70;23.75;;;;;;;8.91;82.76;99338.91;5112725;28;20114;-94
2022/02/06 12:26:03;;;;;;;;;;;;;;;8.99;81.67;99334.41;5112844;28;20092;-94
2022/02/06 12:28:32;;;;;;;38.75;23.08;;;;;;;8.87;81.99;99306.25;5113220;28;19927;-94
2022/02/06 12:31:26;;;;;;;44.83;22.38;;;;;;;8.91;81.51;99294.69;5112504;28;20044;-95
2022/02/06 12:39:57;;;;;;;39.83;22.85;;;;;;;9.52;79.85;99292.13;5113622;27;20365;-94
2022/02/06 12:42:27;;;;;;;42.63;24.70;;;;;;;9.56;79.91;99286.75;5113507;28;20050;-95
2022/02/06 12:44:56;;;;;;;45.17;27.02;;;;;;;9.53;80.16;99259.38;5113175;28;20051;-94
2022/02/06 12:47:22;;;;;;;37.85;23.52;;;;;;;9.60;79.25;99247.75;5112761;28;20047;-93
2022/02/06 12:49:48;;;;;;;41.28;23.08;;;;;;;9.78;78.68;99282.00;5112660;28;20035;-95
2022/02/06 12:52:14;;;;;;;45.53;23.52;;;;;;;9.71;79.15;99250.25;5113751;28;20365;-94
2022/02/06 12:54:40;;;;;;;42.45;23.77;;;;;;;9.79;78.85;99246.56;5112912;28;20047;-94
2022/02/06 12:57:08;;;;;;;42.80;25.55;;;;;;;9.81;79.09;99241.25;5112642;28;20043;-94
2022/02/06 12:59:37;;;;;;;49.22;26.27;;;;;;;9.87;78.97;99241.13;5112704;28;20097;-94
2022/02/06 13:02:06;;;;;;;48.15;25.92;;;;;;;10.00;78.51;99250.66;5112525;28;20079;-94
2022/02/06 13:04:39;;;;;;;50.23;27.63;;;;;;;9.90;78.62;99238.41;5112363;28;20063;-96
2022/02/06 13:07:05;;;;;;;51.05;27.85;;;;;;;9.78;79.61;99234.19;5112626;28;20048;-95
2022/02/06 13:09:37;;;;;;;45.58;25.85;;;;;;;9.74;81.14;99236.94;5112326;28;20097;-95
2022/02/06 13:21:33;;;;;;;46.20;25.38;;;;;;;10.02;79.72;99232.03;5108101;27;20384;-94
2022/02/06 13:27:10;;;;;;;39.95;25.00;;;;;;;10.52;77.78;99216.06;5093273;27;20355;-94
2022/02/06 13:29:53;;;;;;;46.25;24.98;;;;;;;10.80;76.96;99219.03;5092440;28;20044;-95
2022/02/06 13:38:33;;;;;;;39.13;22.90;;;;;;;10.94;75.35;99218.78;5176149;27;20369;-94
2022/02/06 13:41:10;;;;;;;42.00;23.63;;;;;;;10.92;75.57;99208.16;5159822;27;20050;-94
2022/02/06 13:43:41;;;;;;;47.30;25.92;;;;;;;11.02;76.23;99206.19;5164005;27;20035;-93
2022/02/06 13:46:15;;;;;;;42.65;24.33;;;;;;;11.08;76.04;99200.69;5167696;27;20129;-93
2022/02/06 13:48:44;;;;;;;48.63;26.52;;;;;;;11.17;75.79;99213.81;5161796;27;20047;-93
2022/02/06 13:51:10;;;;;;;54.03;30.08;;;;;;;11.14;75.88;99191.72;5158812;27;20062;-94
2022/02/06 13:53:38;;;;;;;53.00;26.92;;;;;;;11.00;75.90;99173.41;5174355;27;20046;-93
2022/02/06 13:56:07;;;;;;;44.28;24.80;;;;;;;11.14;75.68;99184.59;5167579;27;20095;-93
2022/02/06 13:58:35;;;;;;;49.78;25.80;;;;;;;11.21;75.83;99203.97;5154120;27;20046;-94
2022/02/06 14:01:03;;;;;;;46.50;26.48;;;;;;;11.16;75.85;99198.75;5153730;27;20058;-94
2022/02/06 14:03:43;;;;;;;50.88;27.50;;;;;;;11.18;75.62;99199.59;5155628;27;20067;-95
2022/02/06 14:06:10;;;;;;;55.97;29.83;;;;;;;11.06;75.51;99181.22;5154541;27;20406;-94
2022/02/06 14:08:39;;;;;;;43.45;26.92;;;;;;;11.16;75.54;99192.56;5161137;27;20039;-94
2022/02/06 14:11:15;;;;;;;46.83;25.58;;;;;;;11.18;75.78;99182.75;5162064;27;20430;-94
2022/02/06 14:13:41;;;;;;;42.70;25.75;;;;;;;11.18;76.17;99169.44;5161812;27;20038;-96
2022/02/06 14:16:10;;;;;;;44.50;26.60;;;;;;;11.08;76.42;99152.78;5160808;27;20131;-95
2022/02/06 14:18:46;;;;;;;44.92;25.60;;;;;;;11.16;76.24;99169.47;5154883;27;20126;-96
2022/02/06 14:21:12;;;;;;;52.63;33.95;;;;;;;11.17;75.97;99171.22;5164382;27;20051;-95
2022/02/06 14:23:39;;;;;;;46.35;25.95;;;;;;;11.06;76.61;99157.28;5154578;27;20096;-94
2022/02/06 14:26:12;;;;;;;51.50;28.48;;;;;;;11.13;76.61;99166.03;5171103;27;20047;-93
2022/02/06 14:28:47;;;;;;;56.38;34.00;;;;;;;11.14;76.56;99155.31;5168416;27;20047;-94
2022/02/06 14:31:22;;;;;;;68.43;34.72;;;;;;;11.06;75.75;99135.97;5158358;27;20039;-94